AIB3 LFBO-LPMA
Flight info
| Callsign | AIB3 |
|---|---|
| Flight time | N/A |
| Altitude | 37000 |
| Route | GAUDE DCT PERDU DCT YAKXU DCT SIE DCT DIPOL DCT CCS DCT ELVAR DCT NARTA DCT RAKUN |
| Aircraft | A388/J-SADE2E3FGHIJ3J4J5M1RWXY/LB1D1 |
Departure
| Time | N/A |
|---|---|
| Airport | Toulouse-Blagnac Airport (LFBO) |
Arrival
| Time | 2026-04-30 21:32 |
|---|---|
| Airport | Cristiano Ronaldo International Airport (LPMA) |
| Time | Latitude | Longitude | Altitude | Speed | Heading |
|---|---|---|---|---|---|
| 2026-04-30 17:39 | 39.38252 | -6.87828 | 41053 ft | 484 kts | 238° |
| 2026-04-30 17:42 | 39.20632 | -7.24756 | 41064 ft | 483 kts | 234° |
| 2026-04-30 17:43 | 39.10966 | -7.42341 | 41057 ft | 482 kts | 234° |
| 2026-04-30 17:44 | 38.99337 | -7.63468 | 41064 ft | 482 kts | 234° |
| 2026-04-30 17:47 | 38.81853 | -7.94934 | 41064 ft | 481 kts | 234° |
| 2026-04-30 17:48 | 38.68212 | -8.19273 | 41072 ft | 481 kts | 234° |
| 2026-04-30 17:50 | 38.52573 | -8.46952 | 41085 ft | 481 kts | 234° |
| 2026-04-30 17:52 | 38.40810 | -8.67617 | 41097 ft | 481 kts | 234° |
| 2026-04-30 17:54 | 38.23101 | -8.98483 | 41093 ft | 480 kts | 234° |
| 2026-04-30 17:56 | 38.07292 | -9.25794 | 41102 ft | 479 kts | 234° |
| 2026-04-30 17:58 | 37.95423 | -9.46151 | 41108 ft | 479 kts | 234° |
| 2026-04-30 18:00 | 37.79568 | -9.73147 | 41111 ft | 478 kts | 235° |
| 2026-04-30 18:01 | 37.69654 | -9.89915 | 41113 ft | 477 kts | 235° |
| 2026-04-30 18:02 | 37.57746 | -10.09948 | 41111 ft | 477 kts | 235° |
| 2026-04-30 18:04 | 37.45778 | -10.29958 | 41123 ft | 476 kts | 235° |
| 2026-04-30 18:06 | 37.29817 | -10.56460 | 41113 ft | 476 kts | 235° |
| 2026-04-30 18:08 | 37.15833 | -10.79506 | 41114 ft | 475 kts | 235° |
| 2026-04-30 18:10 | 36.99818 | -11.05705 | 41118 ft | 474 kts | 234° |
| 2026-04-30 18:11 | 36.85792 | -11.28484 | 41119 ft | 473 kts | 234° |
| 2026-04-30 18:13 | 36.75756 | -11.44691 | 41121 ft | 472 kts | 234° |
| 2026-04-30 18:14 | 36.65729 | -11.60802 | 41112 ft | 471 kts | 234° |
| 2026-04-30 18:15 | 36.60903 | -11.71343 | 41121 ft | 467 kts | 245° |
| 2026-04-30 18:15 | 36.56487 | -11.82101 | 41116 ft | 468 kts | 244° |
| 2026-04-30 18:16 | 36.50446 | -11.96466 | 41566 ft | 471 kts | 244° |
| 2026-04-30 18:17 | 36.48923 | -12.00074 | 41901 ft | 472 kts | 244° |
| 2026-04-30 18:17 | 36.47394 | -12.03690 | 42211 ft | 474 kts | 243° |
| 2026-04-30 18:18 | 36.42849 | -12.14416 | 42116 ft | 467 kts | 244° |
| 2026-04-30 18:18 | 36.39811 | -12.21571 | 42115 ft | 469 kts | 243° |
| 2026-04-30 18:19 | 36.36764 | -12.28728 | 42115 ft | 469 kts | 243° |
| 2026-04-30 18:19 | 36.33719 | -12.35863 | 42135 ft | 466 kts | 244° |
| 2026-04-30 18:20 | 36.30704 | -12.42916 | 42116 ft | 465 kts | 244° |
| 2026-04-30 18:20 | 36.27675 | -12.49985 | 42116 ft | 464 kts | 244° |
| 2026-04-30 18:21 | 36.24640 | -12.57054 | 42117 ft | 465 kts | 244° |
| 2026-04-30 18:21 | 36.21622 | -12.64068 | 42116 ft | 465 kts | 244° |
| 2026-04-30 18:22 | 36.18580 | -12.71121 | 42112 ft | 464 kts | 244° |
| 2026-04-30 18:22 | 36.14016 | -12.81676 | 42113 ft | 462 kts | 244° |
| 2026-04-30 18:23 | 36.10995 | -12.88645 | 42113 ft | 462 kts | 244° |
| 2026-04-30 18:23 | 36.07953 | -12.95648 | 42113 ft | 462 kts | 244° |
| 2026-04-30 18:24 | 36.03381 | -13.06144 | 42113 ft | 463 kts | 243° |
| 2026-04-30 18:25 | 36.00339 | -13.13105 | 42114 ft | 459 kts | 244° |
| 2026-04-30 18:25 | 35.95825 | -13.23417 | 42096 ft | 457 kts | 244° |
| 2026-04-30 18:26 | 35.91274 | -13.33779 | 42106 ft | 457 kts | 244° |
| 2026-04-30 18:27 | 35.86741 | -13.44068 | 42124 ft | 458 kts | 244° |
| 2026-04-30 18:28 | 35.82184 | -13.54375 | 42109 ft | 455 kts | 244° |
| 2026-04-30 18:28 | 35.77634 | -13.64641 | 42104 ft | 455 kts | 244° |
| 2026-04-30 18:29 | 35.71576 | -13.78258 | 42106 ft | 455 kts | 244° |
| 2026-04-30 18:30 | 35.65458 | -13.91792 | 42104 ft | 451 kts | 243° |
| 2026-04-30 18:31 | 35.60945 | -14.01851 | 42107 ft | 450 kts | 243° |
| 2026-04-30 18:32 | 35.56417 | -14.11930 | 42104 ft | 450 kts | 244° |
| 2026-04-30 18:33 | 35.51884 | -14.22116 | 42111 ft | 450 kts | 244° |
| 2026-04-30 18:33 | 35.47352 | -14.32164 | 42105 ft | 451 kts | 244° |
| 2026-04-30 18:34 | 35.42774 | -14.42254 | 42100 ft | 451 kts | 244° |
| 2026-04-30 18:35 | 35.39718 | -14.48975 | 42107 ft | 451 kts | 244° |
| 2026-04-30 18:35 | 35.36676 | -14.55650 | 42098 ft | 451 kts | 244° |
| 2026-04-30 18:36 | 35.32087 | -14.65696 | 42097 ft | 450 kts | 244° |
| 2026-04-30 18:37 | 35.27495 | -14.75724 | 42100 ft | 450 kts | 244° |
| 2026-04-30 18:37 | 35.24456 | -14.82350 | 42092 ft | 443 kts | 244° |
| 2026-04-30 18:37 | 35.23195 | -14.85714 | 42097 ft | 431 kts | 254° |
| 2026-04-30 18:38 | 35.22501 | -14.89255 | 42098 ft | 428 kts | 262° |
| 2026-04-30 18:38 | 35.22413 | -14.96537 | 42092 ft | 430 kts | 276° |
| 2026-04-30 18:39 | 35.23945 | -15.03626 | 42094 ft | 435 kts | 290° |
| 2026-04-30 18:39 | 35.27064 | -15.09972 | 42094 ft | 444 kts | 305° |
| 2026-04-30 18:40 | 35.31692 | -15.15110 | 42094 ft | 459 kts | 321° |
| 2026-04-30 18:40 | 35.37562 | -15.18428 | 42094 ft | 475 kts | 338° |
| 2026-04-30 18:41 | 35.44242 | -15.19390 | 42091 ft | 495 kts | 356° |
| 2026-04-30 18:41 | 35.51077 | -15.17584 | 42092 ft | 515 kts | 16° |
| 2026-04-30 18:41 | 35.54266 | -15.15618 | 42122 ft | 525 kts | 27° |
| 2026-04-30 18:42 | 35.57263 | -15.12878 | 42094 ft | 535 kts | 38° |
| 2026-04-30 18:42 | 35.61844 | -15.05681 | 42098 ft | 547 kts | 60° |
| 2026-04-30 18:42 | 35.63593 | -15.01525 | 42093 ft | 547 kts | 60° |
| 2026-04-30 18:45 | 35.68825 | -14.58215 | 42100 ft | 536 kts | 130° |
| 2026-04-30 18:45 | 35.66449 | -14.54743 | 42101 ft | 526 kts | 141° |
| 2026-04-30 18:45 | 35.63653 | -14.51912 | 42103 ft | 517 kts | 153° |
| 2026-04-30 18:46 | 35.60541 | -14.49802 | 42081 ft | 507 kts | 164° |
| 2026-04-30 18:46 | 35.57273 | -14.48488 | 42103 ft | 496 kts | 175° |
| 2026-04-30 18:46 | 35.53896 | -14.47962 | 42106 ft | 484 kts | 186° |
| 2026-04-30 18:47 | 35.47345 | -14.48937 | 42105 ft | 468 kts | 201° |
| 2026-04-30 18:47 | 35.41390 | -14.51829 | 42101 ft | 455 kts | 216° |
| 2026-04-30 18:48 | 35.36494 | -14.56461 | 42100 ft | 443 kts | 231° |
| 2026-04-30 18:48 | 35.32959 | -14.62500 | 42100 ft | 434 kts | 246° |
| 2026-04-30 18:49 | 35.30182 | -14.69078 | 42100 ft | 435 kts | 245° |
| 2026-04-30 18:49 | 35.27355 | -14.75616 | 42099 ft | 434 kts | 245° |
| 2026-04-30 18:50 | 35.24556 | -14.82160 | 42098 ft | 434 kts | 246° |
| 2026-04-30 18:50 | 35.22662 | -14.89054 | 42099 ft | 430 kts | 261° |
| 2026-04-30 18:51 | 35.22423 | -14.96335 | 42092 ft | 430 kts | 275° |
| 2026-04-30 18:51 | 35.23878 | -15.03437 | 42094 ft | 435 kts | 289° |
| 2026-04-30 18:52 | 35.26975 | -15.09855 | 42097 ft | 444 kts | 304° |
| 2026-04-30 18:52 | 35.31538 | -15.15003 | 42097 ft | 459 kts | 320° |
| 2026-04-30 18:53 | 35.37389 | -15.18389 | 42097 ft | 475 kts | 337° |
| 2026-04-30 18:53 | 35.44048 | -15.19426 | 42094 ft | 495 kts | 355° |
| 2026-04-30 18:54 | 35.50903 | -15.17703 | 42096 ft | 515 kts | 15° |
| 2026-04-30 18:54 | 35.54109 | -15.15776 | 42129 ft | 525 kts | 26° |
| 2026-04-30 18:54 | 35.57087 | -15.13120 | 42095 ft | 534 kts | 37° |
| 2026-04-30 18:54 | 35.59673 | -15.09803 | 42100 ft | 542 kts | 48° |
| 2026-04-30 18:55 | 35.61765 | -15.05936 | 42097 ft | 547 kts | 59° |
| 2026-04-30 18:55 | 35.67026 | -14.93478 | 42097 ft | 547 kts | 60° |
| 2026-04-30 18:56 | 35.71867 | -14.80825 | 42096 ft | 551 kts | 73° |
| 2026-04-30 18:56 | 35.72587 | -14.76195 | 42102 ft | 552 kts | 85° |
| 2026-04-30 18:57 | 35.72030 | -14.66841 | 42103 ft | 548 kts | 107° |
| 2026-04-30 18:57 | 35.70777 | -14.62437 | 42105 ft | 543 kts | 118° |
| 2026-04-30 18:57 | 35.68937 | -14.58428 | 42102 ft | 536 kts | 130° |
| 2026-04-30 18:58 | 35.63784 | -14.52075 | 42097 ft | 517 kts | 152° |
| 2026-04-30 18:58 | 35.60725 | -14.49971 | 42079 ft | 507 kts | 163° |
| 2026-04-30 18:58 | 35.57412 | -14.48614 | 42102 ft | 496 kts | 175° |
| 2026-04-30 18:59 | 35.50703 | -14.48254 | 42108 ft | 476 kts | 194° |
| 2026-04-30 19:00 | 35.41497 | -14.51771 | 42102 ft | 454 kts | 216° |
| 2026-04-30 19:00 | 35.38902 | -14.53846 | 42105 ft | 448 kts | 223° |
| 2026-04-30 19:00 | 35.34611 | -14.59225 | 42098 ft | 437 kts | 238° |
| 2026-04-30 19:01 | 35.31649 | -14.65667 | 42102 ft | 434 kts | 245° |
| 2026-04-30 19:02 | 35.27418 | -14.75472 | 42102 ft | 434 kts | 245° |
| 2026-04-30 19:03 | 35.22692 | -14.88851 | 42099 ft | 428 kts | 260° |
| 2026-04-30 19:03 | 35.22401 | -14.96099 | 42096 ft | 428 kts | 275° |
| 2026-04-30 19:04 | 35.23787 | -15.03182 | 42099 ft | 433 kts | 289° |
| 2026-04-30 19:04 | 35.26777 | -15.09571 | 42100 ft | 442 kts | 303° |
| 2026-04-30 19:05 | 35.31282 | -15.14811 | 42092 ft | 456 kts | 319° |
| 2026-04-30 19:05 | 35.37062 | -15.18296 | 42097 ft | 473 kts | 336° |
| 2026-04-30 19:06 | 35.43676 | -15.19472 | 42098 ft | 492 kts | 354° |
| 2026-04-30 19:06 | 35.53735 | -15.16093 | 42134 ft | 522 kts | 25° |
| 2026-04-30 19:07 | 35.59390 | -15.10298 | 42098 ft | 540 kts | 47° |
| 2026-04-30 19:07 | 35.61547 | -15.06501 | 42098 ft | 545 kts | 58° |
| 2026-04-30 19:08 | 35.68568 | -14.89927 | 42105 ft | 546 kts | 60° |
| 2026-04-30 19:09 | 35.72544 | -14.76905 | 42101 ft | 551 kts | 83° |
| 2026-04-30 19:09 | 35.72689 | -14.72206 | 42101 ft | 550 kts | 95° |
| 2026-04-30 19:09 | 35.72166 | -14.67550 | 42100 ft | 547 kts | 106° |
| 2026-04-30 19:10 | 35.69233 | -14.59066 | 42103 ft | 536 kts | 128° |
| 2026-04-30 19:10 | 35.64207 | -14.52581 | 42100 ft | 517 kts | 151° |
| 2026-04-30 19:11 | 35.61196 | -14.50396 | 42076 ft | 507 kts | 162° |
| 2026-04-30 19:11 | 35.54539 | -14.48308 | 42109 ft | 484 kts | 184° |
| 2026-04-30 19:12 | 35.47949 | -14.48894 | 42111 ft | 469 kts | 199° |
| 2026-04-30 19:12 | 35.41924 | -14.51500 | 42102 ft | 454 kts | 214° |
| 2026-04-30 19:13 | 35.36930 | -14.55935 | 42105 ft | 442 kts | 229° |
| 2026-04-30 19:13 | 35.33256 | -14.61826 | 42105 ft | 432 kts | 244° |
| 2026-04-30 19:14 | 35.30497 | -14.68353 | 42101 ft | 432 kts | 245° |
| 2026-04-30 19:14 | 35.27683 | -14.74856 | 42102 ft | 432 kts | 245° |
| 2026-04-30 19:15 | 35.24896 | -14.81356 | 42102 ft | 432 kts | 245° |
| 2026-04-30 19:15 | 35.22816 | -14.88128 | 42102 ft | 428 kts | 259° |
| 2026-04-30 19:15 | 35.22371 | -14.91719 | 42102 ft | 427 kts | 266° |
| 2026-04-30 19:16 | 35.22740 | -14.98957 | 42100 ft | 429 kts | 280° |
| 2026-04-30 19:16 | 35.24750 | -15.05802 | 42100 ft | 435 kts | 294° |
| 2026-04-30 19:17 | 35.26385 | -15.09000 | 42097 ft | 440 kts | 302° |
| 2026-04-30 19:17 | 35.30694 | -15.14357 | 42098 ft | 455 kts | 317° |
| 2026-04-30 19:17 | 35.33378 | -15.16468 | 42097 ft | 462 kts | 325° |
| 2026-04-30 19:18 | 35.37393 | -15.18502 | 42099 ft | 474 kts | 337° |
| 2026-04-30 19:18 | 35.42884 | -15.19566 | 42100 ft | 490 kts | 352° |
| 2026-04-30 19:19 | 35.49702 | -15.18385 | 42097 ft | 511 kts | 11° |
| 2026-04-30 19:19 | 35.53009 | -15.16716 | 42097 ft | 521 kts | 22° |
| 2026-04-30 19:19 | 35.58850 | -15.11254 | 42098 ft | 538 kts | 44° |
| 2026-04-30 19:20 | 35.61142 | -15.07583 | 42098 ft | 545 kts | 55° |
| 2026-04-30 19:20 | 35.62957 | -15.03491 | 42106 ft | 547 kts | 60° |
| 2026-04-30 19:21 | 35.68198 | -14.91093 | 42097 ft | 547 kts | 60° |
| 2026-04-30 19:22 | 35.72788 | -14.73466 | 42105 ft | 549 kts | 92° |
| 2026-04-30 19:22 | 35.69776 | -14.60172 | 42107 ft | 536 kts | 126° |
| 2026-04-30 19:23 | 35.62013 | -14.51083 | 42104 ft | 507 kts | 160° |
| 2026-04-30 19:24 | 35.55442 | -14.48643 | 42112 ft | 486 kts | 181° |
| 2026-04-30 19:24 | 35.52103 | -14.48438 | 42109 ft | 477 kts | 188° |
| 2026-04-30 19:24 | 35.45659 | -14.49652 | 42111 ft | 461 kts | 204° |
| 2026-04-30 19:25 | 35.37533 | -14.55252 | 42108 ft | 441 kts | 227° |
| 2026-04-30 19:26 | 35.33695 | -14.60910 | 42108 ft | 431 kts | 242° |
| 2026-04-30 19:26 | 35.30917 | -14.67381 | 42105 ft | 430 kts | 245° |
| 2026-04-30 19:27 | 35.26726 | -14.77081 | 42105 ft | 430 kts | 245° |
| 2026-04-30 19:28 | 35.23051 | -14.86968 | 42103 ft | 426 kts | 256° |
| 2026-04-30 19:28 | 35.22304 | -14.94111 | 42107 ft | 425 kts | 270° |
| 2026-04-30 19:29 | 35.23212 | -15.01255 | 42097 ft | 429 kts | 284° |
| 2026-04-30 19:30 | 35.29774 | -15.13484 | 42122 ft | 450 kts | 314° |
| 2026-04-30 19:30 | 35.35177 | -15.17561 | 42101 ft | 466 kts | 330° |
| 2026-04-30 19:31 | 35.41563 | -15.19516 | 42102 ft | 485 kts | 348° |
| 2026-04-30 19:31 | 35.51714 | -15.17523 | 42103 ft | 515 kts | 18° |
| 2026-04-30 19:32 | 35.54897 | -15.15433 | 42125 ft | 526 kts | 28° |
| 2026-04-30 19:32 | 35.57801 | -15.12636 | 42102 ft | 534 kts | 39° |
| 2026-04-30 19:32 | 35.60289 | -15.09209 | 42102 ft | 541 kts | 51° |
| 2026-04-30 19:32 | 35.62266 | -15.05262 | 42103 ft | 546 kts | 60° |
| 2026-04-30 19:33 | 35.65760 | -14.96968 | 42104 ft | 546 kts | 60° |
| 2026-04-30 19:33 | 35.69241 | -14.88751 | 42103 ft | 545 kts | 60° |
| 2026-04-30 19:34 | 35.72190 | -14.80155 | 42094 ft | 549 kts | 76° |
| 2026-04-30 19:34 | 35.72702 | -14.70821 | 42101 ft | 548 kts | 98° |
| 2026-04-30 19:35 | 35.71962 | -14.66240 | 42106 ft | 545 kts | 110° |
| 2026-04-30 19:35 | 35.70587 | -14.61923 | 42108 ft | 539 kts | 121° |
| 2026-04-30 19:35 | 35.68641 | -14.58036 | 42106 ft | 531 kts | 133° |
| 2026-04-30 19:35 | 35.66192 | -14.54691 | 42102 ft | 521 kts | 144° |
| 2026-04-30 19:36 | 35.63343 | -14.52009 | 42104 ft | 511 kts | 155° |
| 2026-04-30 19:36 | 35.60250 | -14.50092 | 42085 ft | 501 kts | 166° |
| 2026-04-30 19:36 | 35.53589 | -14.48471 | 42114 ft | 481 kts | 185° |
| 2026-04-30 19:37 | 35.47058 | -14.49201 | 42111 ft | 465 kts | 200° |
| 2026-04-30 19:37 | 35.41155 | -14.52039 | 42106 ft | 450 kts | 216° |
| 2026-04-30 19:38 | 35.36357 | -14.56664 | 42103 ft | 438 kts | 231° |
| 2026-04-30 19:38 | 35.32891 | -14.62664 | 42107 ft | 429 kts | 246° |
| 2026-04-30 19:39 | 35.30151 | -14.69153 | 42105 ft | 429 kts | 245° |
| 2026-04-30 19:39 | 35.27358 | -14.75610 | 42105 ft | 429 kts | 245° |
| 2026-04-30 19:40 | 35.24611 | -14.82027 | 42104 ft | 428 kts | 246° |
| 2026-04-30 19:40 | 35.22686 | -14.88869 | 42104 ft | 425 kts | 260° |
| 2026-04-30 19:41 | 35.22379 | -14.96039 | 42100 ft | 423 kts | 274° |
| 2026-04-30 19:41 | 35.23707 | -15.03059 | 42103 ft | 428 kts | 288° |
| 2026-04-30 19:42 | 35.26602 | -15.09426 | 42099 ft | 437 kts | 302° |
| 2026-04-30 19:42 | 35.30988 | -15.14700 | 42097 ft | 452 kts | 318° |
| 2026-04-30 19:43 | 35.36644 | -15.18299 | 42102 ft | 468 kts | 334° |
| 2026-04-30 19:44 | 35.45429 | -15.19564 | 42098 ft | 495 kts | 359° |
| 2026-04-30 19:44 | 35.49950 | -15.18417 | 42100 ft | 509 kts | 12° |
| 2026-04-30 19:44 | 35.53236 | -15.16718 | 42100 ft | 518 kts | 22° |
| 2026-04-30 19:45 | 35.59026 | -15.11226 | 42103 ft | 537 kts | 44° |
| 2026-04-30 19:45 | 35.62507 | -15.04867 | 42107 ft | 545 kts | 60° |
| 2026-04-30 19:46 | 35.65994 | -14.96593 | 42097 ft | 545 kts | 60° |
| 2026-04-30 19:46 | 35.70060 | -14.87000 | 42100 ft | 544 kts | 60° |
| 2026-04-30 19:47 | 35.72324 | -14.79773 | 42105 ft | 548 kts | 77° |
| 2026-04-30 19:47 | 35.72694 | -14.70451 | 42105 ft | 547 kts | 100° |
| 2026-04-30 19:47 | 35.71491 | -14.64500 | 42103 ft | 541 kts | 115° |
| 2026-04-30 19:48 | 35.70450 | -14.61646 | 42113 ft | 536 kts | 122° |
| 2026-04-30 19:48 | 35.68444 | -14.57817 | 42109 ft | 529 kts | 134° |
| 2026-04-30 19:48 | 35.65957 | -14.54562 | 42108 ft | 519 kts | 145° |
| 2026-04-30 19:48 | 35.63080 | -14.51974 | 42110 ft | 508 kts | 156° |
| 2026-04-30 19:49 | 35.59923 | -14.50136 | 42095 ft | 497 kts | 168° |
| 2026-04-30 19:49 | 35.53321 | -14.48569 | 42113 ft | 479 kts | 185° |
| 2026-04-30 19:49 | 35.50029 | -14.48650 | 42114 ft | 471 kts | 193° |
| 2026-04-30 19:50 | 35.43792 | -14.50479 | 42110 ft | 454 kts | 209° |
| 2026-04-30 19:50 | 35.38441 | -14.54320 | 42111 ft | 441 kts | 224° |
| 2026-04-30 19:51 | 35.34351 | -14.59690 | 42110 ft | 430 kts | 239° |
| 2026-04-30 19:51 | 35.31486 | -14.66052 | 42107 ft | 427 kts | 245° |
| 2026-04-30 19:52 | 35.28712 | -14.72474 | 42108 ft | 427 kts | 245° |
| 2026-04-30 19:52 | 35.25962 | -14.78863 | 42108 ft | 427 kts | 245° |
| 2026-04-30 19:53 | 35.23446 | -14.85404 | 42107 ft | 424 kts | 253° |
| 2026-04-30 19:53 | 35.22325 | -14.92445 | 42108 ft | 422 kts | 267° |
| 2026-04-30 19:54 | 35.22831 | -14.99588 | 42099 ft | 425 kts | 281° |
| 2026-04-30 19:54 | 35.24955 | -15.06369 | 42100 ft | 432 kts | 295° |
| 2026-04-30 19:55 | 35.28583 | -15.12231 | 42102 ft | 443 kts | 310° |
| 2026-04-30 19:55 | 35.33631 | -15.16760 | 42102 ft | 459 kts | 326° |
| 2026-04-30 19:56 | 35.39770 | -15.19337 | 42100 ft | 478 kts | 343° |
| 2026-04-30 19:56 | 35.46536 | -15.19465 | 42099 ft | 498 kts | 2° |
| 2026-04-30 19:57 | 35.49942 | -15.18493 | 42102 ft | 509 kts | 12° |
| 2026-04-30 19:57 | 35.53194 | -15.16830 | 42103 ft | 519 kts | 22° |
| 2026-04-30 19:57 | 35.56273 | -15.14438 | 42100 ft | 529 kts | 33° |
| 2026-04-30 19:57 | 35.59009 | -15.11368 | 42100 ft | 537 kts | 44° |
| 2026-04-30 19:58 | 35.61293 | -15.07708 | 42099 ft | 543 kts | 55° |
| 2026-04-30 19:58 | 35.63104 | -15.03614 | 42101 ft | 546 kts | 60° |
| 2026-04-30 19:58 | 35.66599 | -14.95346 | 42096 ft | 545 kts | 60° |
| 2026-04-30 19:59 | 35.70098 | -14.87087 | 42103 ft | 544 kts | 60° |
| 2026-04-30 19:59 | 35.72611 | -14.78359 | 42104 ft | 549 kts | 81° |
| 2026-04-30 20:00 | 35.72917 | -14.73684 | 42101 ft | 549 kts | 92° |
| 2026-04-30 20:00 | 35.72556 | -14.69035 | 42106 ft | 546 kts | 103° |
| 2026-04-30 20:00 | 35.71542 | -14.64559 | 42112 ft | 540 kts | 115° |
| 2026-04-30 20:00 | 35.69922 | -14.60436 | 42112 ft | 532 kts | 126° |
| 2026-04-30 20:01 | 35.65136 | -14.53756 | 42154 ft | 514 kts | 149° |
| 2026-04-30 20:01 | 35.62196 | -14.51450 | 42286 ft | 504 kts | 160° |
| 2026-04-30 20:01 | 35.58974 | -14.49857 | 42399 ft | 495 kts | 171° |
| 2026-04-30 20:02 | 35.52292 | -14.48574 | 42675 ft | 480 kts | 187° |
| 2026-04-30 20:02 | 35.48988 | -14.48815 | 42817 ft | 473 kts | 195° |
| 2026-04-30 20:03 | 35.42778 | -14.51028 | 43090 ft | 461 kts | 211° |
| 2026-04-30 20:03 | 35.40004 | -14.52923 | 43112 ft | 454 kts | 219° |
| 2026-04-30 20:03 | 35.35404 | -14.57992 | 43082 ft | 445 kts | 234° |
| 2026-04-30 20:04 | 35.32200 | -14.64347 | 43111 ft | 438 kts | 245° |
| 2026-04-30 20:05 | 35.27945 | -14.74252 | 43107 ft | 438 kts | 245° |
| 2026-04-30 20:05 | 35.23821 | -14.84161 | 43115 ft | 436 kts | 250° |
| 2026-04-30 20:06 | 35.22398 | -14.91321 | 43110 ft | 434 kts | 265° |
| 2026-04-30 20:06 | 35.22696 | -14.98683 | 43105 ft | 436 kts | 279° |
| 2026-04-30 20:07 | 35.24720 | -15.05698 | 43108 ft | 443 kts | 294° |
| 2026-04-30 20:08 | 35.29182 | -15.15562 | 43129 ft | 445 kts | 295° |
| 2026-04-30 20:08 | 35.32166 | -15.22212 | 43104 ft | 445 kts | 294° |
| 2026-04-30 20:09 | 35.35120 | -15.28864 | 42852 ft | 443 kts | 294° |
| 2026-04-30 20:09 | 35.36571 | -15.32134 | 42434 ft | 432 kts | 294° |
| 2026-04-30 20:09 | 35.39371 | -15.38459 | 40904 ft | 419 kts | 294° |
| 2026-04-30 20:10 | 35.42116 | -15.44680 | 39228 ft | 411 kts | 293° |
| 2026-04-30 20:10 | 35.43471 | -15.47754 | 38308 ft | 407 kts | 293° |
| 2026-04-30 20:10 | 35.44815 | -15.50810 | 37032 ft | 408 kts | 293° |
| 2026-04-30 20:11 | 35.47538 | -15.57016 | 34340 ft | 418 kts | 292° |
| 2026-04-30 20:11 | 35.48918 | -15.60157 | 33310 ft | 416 kts | 293° |
| 2026-04-30 20:11 | 35.50279 | -15.63250 | 32550 ft | 406 kts | 293° |
| 2026-04-30 20:12 | 35.52821 | -15.69018 | 32086 ft | 366 kts | 292° |
| 2026-04-30 20:12 | 35.53992 | -15.71676 | 32091 ft | 342 kts | 292° |
| 2026-04-30 20:13 | 35.56715 | -15.76571 | 32097 ft | 361 kts | 303° |
| 2026-04-30 20:13 | 35.58492 | -15.78834 | 32093 ft | 377 kts | 309° |
| 2026-04-30 20:13 | 35.60553 | -15.80930 | 32090 ft | 392 kts | 316° |
| 2026-04-30 20:13 | 35.62855 | -15.82771 | 32090 ft | 408 kts | 322° |
| 2026-04-30 20:14 | 35.65456 | -15.84344 | 32087 ft | 425 kts | 329° |
| 2026-04-30 20:14 | 35.68304 | -15.85551 | 32090 ft | 442 kts | 336° |
| 2026-04-30 20:14 | 35.71372 | -15.86325 | 32091 ft | 460 kts | 345° |
| 2026-04-30 20:14 | 35.74622 | -15.86583 | 32090 ft | 476 kts | 353° |
| 2026-04-30 20:15 | 35.77982 | -15.86266 | 32094 ft | 493 kts | 2° |
| 2026-04-30 20:15 | 35.81311 | -15.85347 | 32092 ft | 509 kts | 11° |
| 2026-04-30 20:15 | 35.84736 | -15.83702 | 32092 ft | 526 kts | 20° |
| 2026-04-30 20:15 | 35.87902 | -15.81426 | 32092 ft | 542 kts | 30° |
| 2026-04-30 20:16 | 35.90845 | -15.78445 | 32088 ft | 556 kts | 40° |
| 2026-04-30 20:16 | 35.93419 | -15.74814 | 32092 ft | 569 kts | 51° |
| 2026-04-30 20:16 | 35.95506 | -15.70626 | 32115 ft | 577 kts | 62° |
| 2026-04-30 20:16 | 35.97017 | -15.66024 | 32087 ft | 581 kts | 73° |
| 2026-04-30 20:17 | 35.97892 | -15.61162 | 32095 ft | 580 kts | 84° |
| 2026-04-30 20:17 | 35.97645 | -15.51310 | 32093 ft | 574 kts | 105° |
| 2026-04-30 20:18 | 35.94839 | -15.42209 | 32097 ft | 571 kts | 124° |
| 2026-04-30 20:18 | 35.90842 | -15.33755 | 32105 ft | 571 kts | 124° |
| 2026-04-30 20:19 | 35.86934 | -15.25240 | 32102 ft | 571 kts | 123° |
| 2026-04-30 20:19 | 35.82467 | -15.17273 | 32109 ft | 558 kts | 141° |
| 2026-04-30 20:20 | 35.76412 | -15.11725 | 32100 ft | 540 kts | 161° |
| 2026-04-30 20:20 | 35.72983 | -15.09945 | 32111 ft | 529 kts | 170° |
| 2026-04-30 20:20 | 35.69456 | -15.08869 | 32111 ft | 518 kts | 179° |
| 2026-04-30 20:21 | 35.62402 | -15.08734 | 32110 ft | 498 kts | 196° |
| 2026-04-30 20:21 | 35.55874 | -15.11037 | 32114 ft | 481 kts | 211° |
| 2026-04-30 20:22 | 35.50366 | -15.15302 | 32100 ft | 466 kts | 226° |
| 2026-04-30 20:22 | 35.46084 | -15.21135 | 32100 ft | 456 kts | 240° |
| 2026-04-30 20:23 | 35.43272 | -15.28028 | 32099 ft | 451 kts | 253° |
| 2026-04-30 20:23 | 35.42044 | -15.35535 | 32100 ft | 450 kts | 266° |
| 2026-04-30 20:24 | 35.42456 | -15.43153 | 32108 ft | 454 kts | 279° |
| 2026-04-30 20:24 | 35.44524 | -15.50498 | 32117 ft | 462 kts | 292° |
| 2026-04-30 20:25 | 35.49187 | -15.60882 | 32106 ft | 465 kts | 294° |
| 2026-04-30 20:26 | 35.53798 | -15.71278 | 32101 ft | 463 kts | 294° |
| 2026-04-30 20:26 | 35.57591 | -15.77757 | 32100 ft | 475 kts | 307° |
| 2026-04-30 20:26 | 35.60020 | -15.80557 | 32094 ft | 483 kts | 314° |
| 2026-04-30 20:27 | 35.65823 | -15.84920 | 32094 ft | 500 kts | 329° |
| 2026-04-30 20:27 | 35.72600 | -15.87231 | 32094 ft | 521 kts | 346° |
| 2026-04-30 20:28 | 35.79961 | -15.87045 | 32092 ft | 540 kts | 4° |
| 2026-04-30 20:28 | 35.87176 | -15.84079 | 32092 ft | 559 kts | 22° |
| 2026-04-30 20:29 | 35.93511 | -15.78335 | 32094 ft | 575 kts | 42° |
| 2026-04-30 20:30 | 35.99590 | -15.65713 | 32096 ft | 581 kts | 73° |
| 2026-04-30 20:30 | 36.00225 | -15.50993 | 32103 ft | 575 kts | 104° |
| 2026-04-30 20:31 | 35.95611 | -15.37556 | 32110 ft | 571 kts | 123° |
| 2026-04-30 20:32 | 35.85778 | -15.16377 | 32112 ft | 563 kts | 135° |
| 2026-04-30 20:33 | 35.76761 | -15.07858 | 32111 ft | 537 kts | 164° |
| 2026-04-30 20:33 | 35.73298 | -15.06298 | 32114 ft | 526 kts | 173° |
| 2026-04-30 20:34 | 35.66201 | -15.05135 | 32116 ft | 506 kts | 189° |
| 2026-04-30 20:34 | 35.59440 | -15.06383 | 32116 ft | 488 kts | 204° |
| 2026-04-30 20:35 | 35.56277 | -15.07819 | 32118 ft | 481 kts | 211° |
| 2026-04-30 20:35 | 35.48332 | -15.14747 | 32128 ft | 462 kts | 232° |
| 2026-04-30 20:36 | 35.44612 | -15.20998 | 32126 ft | 454 kts | 244° |
| 2026-04-30 20:36 | 35.42293 | -15.28135 | 32099 ft | 450 kts | 257° |
| 2026-04-30 20:37 | 35.41698 | -15.31893 | 32121 ft | 450 kts | 263° |
| 2026-04-30 20:37 | 35.41670 | -15.39558 | 32107 ft | 452 kts | 275° |
| 2026-04-30 20:38 | 35.43203 | -15.47045 | 32111 ft | 458 kts | 288° |
| 2026-04-30 20:38 | 35.46105 | -15.54007 | 32106 ft | 463 kts | 294° |
| 2026-04-30 20:39 | 35.50759 | -15.64423 | 32107 ft | 466 kts | 294° |
| 2026-04-30 20:40 | 35.55564 | -15.74730 | 32106 ft | 468 kts | 301° |
| 2026-04-30 20:40 | 35.60084 | -15.80624 | 32100 ft | 482 kts | 315° |
| 2026-04-30 20:41 | 35.65864 | -15.84946 | 32098 ft | 500 kts | 329° |
| 2026-04-30 20:41 | 35.69167 | -15.86382 | 32133 ft | 510 kts | 338° |
| 2026-04-30 20:41 | 35.72666 | -15.87248 | 32097 ft | 521 kts | 346° |
| 2026-04-30 20:41 | 35.76328 | -15.87482 | 32097 ft | 530 kts | 355° |
| 2026-04-30 20:42 | 35.83694 | -15.85904 | 32100 ft | 550 kts | 13° |
| 2026-04-30 20:42 | 35.90527 | -15.81542 | 32097 ft | 567 kts | 32° |
| 2026-04-30 20:43 | 35.93527 | -15.78343 | 32103 ft | 575 kts | 42° |
| 2026-04-30 20:43 | 35.96096 | -15.74565 | 32103 ft | 575 kts | 53° |
| 2026-04-30 20:43 | 35.98145 | -15.70308 | 32103 ft | 579 kts | 63° |
| 2026-04-30 20:44 | 36.00468 | -15.60859 | 32106 ft | 580 kts | 84° |
| 2026-04-30 20:44 | 36.00682 | -15.55911 | 32105 ft | 578 kts | 94° |
| 2026-04-30 20:44 | 35.99193 | -15.46248 | 32108 ft | 570 kts | 114° |
| 2026-04-30 20:45 | 35.95638 | -15.37546 | 32110 ft | 571 kts | 123° |
| 2026-04-30 20:45 | 35.91851 | -15.28989 | 32117 ft | 572 kts | 123° |
| 2026-04-30 20:46 | 35.85805 | -15.16373 | 32119 ft | 563 kts | 135° |
| 2026-04-30 20:46 | 35.83121 | -15.12917 | 32117 ft | 554 kts | 145° |
| 2026-04-30 20:47 | 35.76781 | -15.07847 | 32115 ft | 537 kts | 164° |
| 2026-04-30 20:47 | 35.73314 | -15.06285 | 32119 ft | 526 kts | 173° |
| 2026-04-30 20:48 | 35.66280 | -15.05122 | 32125 ft | 506 kts | 189° |
| 2026-04-30 20:48 | 35.62799 | -15.05461 | 32125 ft | 497 kts | 197° |
| 2026-04-30 20:48 | 35.56307 | -15.07798 | 32125 ft | 481 kts | 211° |
| 2026-04-30 20:49 | 35.50717 | -15.12027 | 32123 ft | 466 kts | 225° |
| 2026-04-30 20:50 | 35.44619 | -15.20990 | 32128 ft | 453 kts | 244° |
| 2026-04-30 20:50 | 35.42310 | -15.28072 | 32117 ft | 450 kts | 257° |
| 2026-04-30 20:51 | 35.41493 | -15.35637 | 32113 ft | 450 kts | 269° |
| 2026-04-30 20:51 | 35.42225 | -15.43255 | 32119 ft | 454 kts | 281° |
| 2026-04-30 20:51 | 35.43183 | -15.46976 | 32115 ft | 458 kts | 288° |
| 2026-04-30 20:52 | 35.46073 | -15.53933 | 32116 ft | 463 kts | 295° |
| 2026-04-30 20:52 | 35.50315 | -15.60019 | 32104 ft | 484 kts | 316° |
| 2026-04-30 20:53 | 35.53190 | -15.62259 | 32113 ft | 497 kts | 327° |
| 2026-04-30 20:53 | 35.56444 | -15.63827 | 32110 ft | 510 kts | 337° |
| 2026-04-30 20:53 | 35.59964 | -15.64640 | 32112 ft | 522 kts | 347° |
| 2026-04-30 20:54 | 35.67341 | -15.63840 | 32107 ft | 548 kts | 9° |
| 2026-04-30 20:54 | 35.70913 | -15.62238 | 32112 ft | 559 kts | 19° |
| 2026-04-30 20:54 | 35.74303 | -15.59854 | 32113 ft | 566 kts | 30° |
| 2026-04-30 20:55 | 35.79991 | -15.53015 | 32115 ft | 581 kts | 52° |
| 2026-04-30 20:55 | 35.83624 | -15.44095 | 32119 ft | 588 kts | 73° |
| 2026-04-30 20:56 | 35.84734 | -15.34171 | 32123 ft | 587 kts | 94° |
| 2026-04-30 20:56 | 35.84300 | -15.29253 | 32117 ft | 583 kts | 104° |
| 2026-04-30 20:56 | 35.81518 | -15.20016 | 32121 ft | 571 kts | 126° |
| 2026-04-30 20:57 | 35.79265 | -15.16025 | 32120 ft | 563 kts | 136° |
| 2026-04-30 20:57 | 35.76537 | -15.12620 | 32119 ft | 555 kts | 147° |
| 2026-04-30 20:57 | 35.73430 | -15.09873 | 32127 ft | 545 kts | 156° |
| 2026-04-30 20:58 | 35.66736 | -15.05997 | 32126 ft | 526 kts | 173° |
| 2026-04-30 20:58 | 35.63188 | -15.05190 | 32128 ft | 513 kts | 184° |
| 2026-04-30 20:58 | 35.59679 | -15.05204 | 32128 ft | 500 kts | 194° |
| 2026-04-30 20:58 | 35.56314 | -15.06017 | 32126 ft | 488 kts | 205° |
| 2026-04-30 20:59 | 35.46941 | -15.10538 | 32129 ft | 484 kts | 206° |
| 2026-04-30 21:00 | 35.34053 | -15.15415 | 32131 ft | 488 kts | 204° |
| 2026-04-30 21:01 | 35.24272 | -15.18917 | 32126 ft | 489 kts | 204° |
| 2026-04-30 21:02 | 35.14480 | -15.22424 | 32124 ft | 489 kts | 204° |
| 2026-04-30 21:02 | 35.07995 | -15.24743 | 32124 ft | 489 kts | 204° |
| 2026-04-30 21:03 | 35.01459 | -15.27076 | 32129 ft | 489 kts | 204° |
| 2026-04-30 21:03 | 34.94935 | -15.29401 | 32132 ft | 489 kts | 204° |
| 2026-04-30 21:04 | 34.88786 | -15.32508 | 32125 ft | 477 kts | 214° |
| 2026-04-30 21:04 | 34.80012 | -15.38215 | 32121 ft | 477 kts | 214° |
| 2026-04-30 21:05 | 34.74093 | -15.41913 | 32116 ft | 479 kts | 213° |
| 2026-04-30 21:05 | 34.68141 | -15.45585 | 32124 ft | 479 kts | 213° |
| 2026-04-30 21:06 | 34.62232 | -15.49223 | 32129 ft | 479 kts | 213° |
| 2026-04-30 21:06 | 34.56288 | -15.52878 | 32125 ft | 479 kts | 213° |
| 2026-04-30 21:07 | 34.50326 | -15.56539 | 32122 ft | 480 kts | 213° |
| 2026-04-30 21:07 | 34.44352 | -15.60204 | 32125 ft | 481 kts | 213° |
| 2026-04-30 21:08 | 34.38414 | -15.63837 | 32128 ft | 481 kts | 213° |
| 2026-04-30 21:08 | 34.32431 | -15.67494 | 32121 ft | 482 kts | 213° |
| 2026-04-30 21:09 | 34.26437 | -15.71151 | 32125 ft | 482 kts | 213° |
| 2026-04-30 21:09 | 34.20441 | -15.74804 | 32113 ft | 484 kts | 213° |
| 2026-04-30 21:10 | 34.14474 | -15.78433 | 32126 ft | 483 kts | 213° |
| 2026-04-30 21:10 | 34.08468 | -15.82079 | 32093 ft | 484 kts | 213° |
| 2026-04-30 21:11 | 34.02476 | -15.85708 | 32024 ft | 473 kts | 213° |
| 2026-04-30 21:11 | 33.99592 | -15.87443 | 31832 ft | 453 kts | 213° |
| 2026-04-30 21:11 | 33.96829 | -15.89104 | 31293 ft | 437 kts | 214° |
| 2026-04-30 21:12 | 33.94126 | -15.90740 | 30076 ft | 435 kts | 214° |
| 2026-04-30 21:12 | 33.91435 | -15.92376 | 28799 ft | 432 kts | 213° |
| 2026-04-30 21:12 | 33.88771 | -15.93990 | 27777 ft | 425 kts | 213° |
| 2026-04-30 21:12 | 33.86199 | -15.95540 | 27085 ft | 411 kts | 213° |
| 2026-04-30 21:13 | 33.83690 | -15.97048 | 26539 ft | 396 kts | 213° |
| 2026-04-30 21:13 | 33.81260 | -15.98510 | 26008 ft | 389 kts | 213° |
| 2026-04-30 21:13 | 33.78842 | -15.99973 | 25487 ft | 389 kts | 213° |
| 2026-04-30 21:13 | 33.76432 | -16.01428 | 24971 ft | 386 kts | 213° |
| 2026-04-30 21:14 | 33.74034 | -16.02874 | 24465 ft | 384 kts | 213° |
| 2026-04-30 21:14 | 33.71659 | -16.04302 | 23967 ft | 381 kts | 213° |
| 2026-04-30 21:14 | 33.69298 | -16.05721 | 23421 ft | 378 kts | 213° |
| 2026-04-30 21:14 | 33.66981 | -16.07112 | 22818 ft | 375 kts | 212° |
| 2026-04-30 21:15 | 33.64655 | -16.08508 | 22280 ft | 373 kts | 212° |
| 2026-04-30 21:15 | 33.62342 | -16.09895 | 21787 ft | 370 kts | 212° |
| 2026-04-30 21:15 | 33.60045 | -16.11271 | 21268 ft | 367 kts | 212° |
| 2026-04-30 21:15 | 33.57771 | -16.12634 | 20778 ft | 365 kts | 212° |
| 2026-04-30 21:16 | 33.55509 | -16.13988 | 20288 ft | 362 kts | 211° |
| 2026-04-30 21:16 | 33.53264 | -16.15331 | 19812 ft | 359 kts | 211° |
| 2026-04-30 21:16 | 33.51038 | -16.16662 | 19336 ft | 357 kts | 211° |
| 2026-04-30 21:16 | 33.48854 | -16.17967 | 18882 ft | 354 kts | 211° |
| 2026-04-30 21:17 | 33.46657 | -16.19279 | 18424 ft | 351 kts | 211° |
| 2026-04-30 21:17 | 33.44479 | -16.20579 | 17892 ft | 349 kts | 211° |
| 2026-04-30 21:17 | 33.42310 | -16.21873 | 17369 ft | 347 kts | 210° |
| 2026-04-30 21:17 | 33.40163 | -16.23153 | 16839 ft | 344 kts | 210° |
| 2026-04-30 21:18 | 33.38021 | -16.24429 | 16342 ft | 343 kts | 210° |
| 2026-04-30 21:18 | 33.35891 | -16.25698 | 15847 ft | 341 kts | 210° |
| 2026-04-30 21:18 | 33.33779 | -16.26955 | 15358 ft | 338 kts | 210° |
| 2026-04-30 21:18 | 33.31704 | -16.28190 | 14890 ft | 336 kts | 209° |
| 2026-04-30 21:19 | 33.29647 | -16.29411 | 14404 ft | 324 kts | 209° |
| 2026-04-30 21:19 | 33.27672 | -16.30582 | 13938 ft | 311 kts | 209° |
| 2026-04-30 21:19 | 33.25762 | -16.31714 | 13421 ft | 301 kts | 209° |
| 2026-04-30 21:19 | 33.23916 | -16.32809 | 12906 ft | 292 kts | 209° |
| 2026-04-30 21:20 | 33.22122 | -16.33874 | 12402 ft | 284 kts | 209° |
| 2026-04-30 21:20 | 33.20362 | -16.34919 | 11891 ft | 281 kts | 209° |
| 2026-04-30 21:20 | 33.18640 | -16.35940 | 11420 ft | 279 kts | 209° |
| 2026-04-30 21:20 | 33.16914 | -16.36965 | 10954 ft | 277 kts | 209° |
| 2026-04-30 21:21 | 33.15192 | -16.37985 | 10554 ft | 275 kts | 209° |
| 2026-04-30 21:21 | 33.13488 | -16.38994 | 10155 ft | 273 kts | 209° |
| 2026-04-30 21:21 | 33.10086 | -16.41008 | 9309 ft | 272 kts | 209° |
| 2026-04-30 21:22 | 33.08394 | -16.42009 | 8919 ft | 271 kts | 209° |
| 2026-04-30 21:22 | 33.03408 | -16.44954 | 7859 ft | 265 kts | 209° |
| 2026-04-30 21:23 | 33.01762 | -16.45926 | 7510 ft | 263 kts | 209° |
| 2026-04-30 21:23 | 33.00123 | -16.46893 | 7170 ft | 262 kts | 209° |
| 2026-04-30 21:23 | 32.96883 | -16.48804 | 6507 ft | 259 kts | 209° |
| 2026-04-30 21:24 | 32.95269 | -16.49756 | 6169 ft | 258 kts | 209° |
| 2026-04-30 21:24 | 32.93787 | -16.50919 | 5782 ft | 256 kts | 222° |
| 2026-04-30 21:24 | 32.92474 | -16.52346 | 5468 ft | 256 kts | 224° |
| 2026-04-30 21:24 | 32.91205 | -16.53776 | 5108 ft | 244 kts | 224° |
| 2026-04-30 21:25 | 32.88936 | -16.56274 | 4255 ft | 206 kts | 224° |
| 2026-04-30 21:25 | 32.87921 | -16.57369 | 3922 ft | 183 kts | 223° |
| 2026-04-30 21:25 | 32.87044 | -16.58306 | 3545 ft | 156 kts | 223° |
| 2026-04-30 21:26 | 32.85508 | -16.59947 | 2696 ft | 149 kts | 221° |
| 2026-04-30 21:26 | 32.84759 | -16.60745 | 2290 ft | 137 kts | 221° |
| 2026-04-30 21:27 | 32.83335 | -16.62260 | 2110 ft | 141 kts | 221° |
| 2026-04-30 21:27 | 32.82596 | -16.63042 | 2100 ft | 139 kts | 221° |
| 2026-04-30 21:27 | 32.81870 | -16.63812 | 2111 ft | 141 kts | 222° |
| 2026-04-30 21:28 | 32.80419 | -16.65358 | 2107 ft | 139 kts | 222° |
| 2026-04-30 21:28 | 32.79693 | -16.66130 | 2108 ft | 142 kts | 222° |
| 2026-04-30 21:28 | 32.78235 | -16.67679 | 2103 ft | 142 kts | 222° |
| 2026-04-30 21:29 | 32.77505 | -16.68450 | 2041 ft | 142 kts | 221° |
| 2026-04-30 21:29 | 32.75268 | -16.70704 | 1607 ft | 141 kts | 224° |
| 2026-04-30 21:30 | 32.73894 | -16.72301 | 1249 ft | 136 kts | 229° |
| 2026-04-30 21:31 | 32.71978 | -16.74789 | 577 ft | 128 kts | 224° |
| 2026-04-30 21:31 | 32.70784 | -16.76260 | 277 ft | 124 kts | 223° |
| 2026-04-30 21:32 | 32.69773 | -16.77461 | 181 ft | 78 kts | 224° |
| 2026-04-30 21:32 | 32.69463 | -16.77823 | 181 ft | 49 kts | 224° |
| 2026-04-30 21:32 | 32.69321 | -16.77964 | 181 ft | 12 kts | 158° |
| 2026-04-30 21:32 | 32.69296 | -16.77860 | 181 ft | 15 kts | 68° |
| 2026-04-30 21:33 | 32.69373 | -16.77760 | 181 ft | 20 kts | 49° |
| 2026-04-30 21:33 | 32.69428 | -16.77688 | 181 ft | 6 kts | 47° |
| 2026-04-30 21:33 | 32.69475 | -16.77628 | 181 ft | 14 kts | 47° |
| 2026-04-30 21:34 | 32.69528 | -16.77560 | 181 ft | 0 kts | 47° |
| 2026-04-30 21:34 | 32.69588 | -16.77481 | 181 ft | 0 kts | 68° |
| 2026-04-30 21:34 | 32.69577 | -16.77437 | 181 ft | 7 kts | 139° |
| 2026-04-30 21:35 | 32.69553 | -16.77410 | 181 ft | 3 kts | 132° |
| 2026-04-30 21:35 | 32.69548 | -16.77403 | 181 ft | 0 kts | 135° |